sensor_id;sensor_type;location;lat;lon;timestamp;pressure;altitude;pressure_sealevel;temperature;humidity
44751;BME280;30477;48.224;11.470;2023-07-13T00:01:12;96032.91;;;20.09;75.39
44751;BME280;30477;48.224;11.470;2023-07-13T00:03:38;96032.31;;;20.14;75.30
44751;BME280;30477;48.224;11.470;2023-07-13T00:06:06;96017.97;;;20.16;75.13
44751;BME280;30477;48.224;11.470;2023-07-13T00:08:33;96019.56;;;20.11;75.01
44751;BME280;30477;48.224;11.470;2023-07-13T00:10:59;96012.72;;;20.10;74.91
44751;BME280;30477;48.224;11.470;2023-07-13T00:13:25;96015.53;;;20.01;75.07
44751;BME280;30477;48.224;11.470;2023-07-13T00:15:50;96016.34;;;20.02;75.19
44751;BME280;30477;48.224;11.470;2023-07-13T00:18:15;96010.06;;;20.03;75.20
44751;BME280;30477;48.224;11.470;2023-07-13T00:20:41;96009.88;;;20.04;74.98
44751;BME280;30477;48.224;11.470;2023-07-13T00:23:06;96011.09;;;20.02;75.08
44751;BME280;30477;48.224;11.470;2023-07-13T00:25:32;96014.31;;;20.04;74.55
44751;BME280;30477;48.224;11.470;2023-07-13T00:27:57;96009.44;;;20.01;74.97
44751;BME280;30477;48.224;11.470;2023-07-13T00:30:23;96004.19;;;20.01;74.93
44751;BME280;30477;48.224;11.470;2023-07-13T00:32:48;96002.19;;;20.03;74.92
44751;BME280;30477;48.224;11.470;2023-07-13T00:35:14;96019.16;;;19.94;75.01
44751;BME280;30477;48.224;11.470;2023-07-13T00:37:40;96019.16;;;19.94;75.38
44751;BME280;30477;48.224;11.470;2023-07-13T00:40:07;96023.00;;;19.91;75.37
44751;BME280;30477;48.224;11.470;2023-07-13T00:42:33;96014.69;;;19.87;75.56
44751;BME280;30477;48.224;11.470;2023-07-13T00:47:27;96015.50;;;19.95;75.94
44751;BME280;30477;48.224;11.470;2023-07-13T00:49:52;96022.38;;;19.89;75.84
44751;BME280;30477;48.224;11.470;2023-07-13T00:52:17;96022.38;;;19.89;75.81
44751;BME280;30477;48.224;11.470;2023-07-13T00:54:45;96017.13;;;19.96;75.93
44751;BME280;30477;48.224;11.470;2023-07-13T00:57:15;96021.97;;;19.92;75.90
44751;BME280;30477;48.224;11.470;2023-07-13T00:59:45;96027.22;;;19.92;76.01
44751;BME280;30477;48.224;11.470;2023-07-13T01:02:11;96027.81;;;19.87;75.98
44751;BME280;30477;48.224;11.470;2023-07-13T01:04:37;96013.47;;;19.83;76.24
44751;BME280;30477;48.224;11.470;2023-07-13T01:07:03;96001.38;;;19.82;76.39
44751;BME280;30477;48.224;11.470;2023-07-13T01:09:29;96000.16;;;19.85;76.61
44751;BME280;30477;48.224;11.470;2023-07-13T01:11:55;95997.72;;;19.83;76.31
44751;BME280;30477;48.224;11.470;2023-07-13T01:14:20;95992.47;;;19.83;76.65
44751;BME280;30477;48.224;11.470;2023-07-13T01:16:46;95989.66;;;19.92;76.76
44751;BME280;30477;48.224;11.470;2023-07-13T01:19:25;95992.69;;;19.89;76.71
44751;BME280;30477;48.224;11.470;2023-07-13T01:22:01;95993.88;;;19.79;76.85
44751;BME280;30477;48.224;11.470;2023-07-13T01:24:26;96004.69;;;19.63;77.13
44751;BME280;30477;48.224;11.470;2023-07-13T01:26:52;96010.53;;;19.52;77.56
44751;BME280;30477;48.224;11.470;2023-07-13T01:29:17;96012.56;;;19.56;78.22
44751;BME280;30477;48.224;11.470;2023-07-13T01:31:42;96023.09;;;19.63;78.46
44751;BME280;30477;48.224;11.470;2023-07-13T01:34:10;96007.72;;;19.46;78.72
44751;BME280;30477;48.224;11.470;2023-07-13T01:36:35;96008.50;;;19.40;78.38
44751;BME280;30477;48.224;11.470;2023-07-13T01:39:01;96005.81;;;19.27;78.63
44751;BME280;30477;48.224;11.470;2023-07-13T01:41:27;95998.16;;;19.32;78.31
44751;BME280;30477;48.224;11.470;2023-07-13T01:43:52;95997.91;;;19.20;78.69
44751;BME280;30477;48.224;11.470;2023-07-13T01:46:17;95993.09;;;19.31;78.99
44751;BME280;30477;48.224;11.470;2023-07-13T01:48:43;95984.47;;;19.43;78.99
44751;BME280;30477;48.224;11.470;2023-07-13T01:51:08;95987.09;;;19.43;79.22
44751;BME280;30477;48.224;11.470;2023-07-13T01:53:33;95989.53;;;19.45;79.29
44751;BME280;30477;48.224;11.470;2023-07-13T01:55:59;95999.84;;;19.46;79.13
44751;BME280;30477;48.224;11.470;2023-07-13T01:58:24;96000.81;;;19.45;78.61
44751;BME280;30477;48.224;11.470;2023-07-13T02:00:51;95997.59;;;19.43;79.15
44751;BME280;30477;48.224;11.470;2023-07-13T02:03:16;96006.50;;;19.49;79.02
44751;BME280;30477;48.224;11.470;2023-07-13T02:05:43;96000.03;;;19.52;79.06
44751;BME280;30477;48.224;11.470;2023-07-13T02:08:08;96001.44;;;19.54;79.27
44751;BME280;30477;48.224;11.470;2023-07-13T02:10:34;96004.50;;;19.58;79.12
44751;BME280;30477;48.224;11.470;2023-07-13T02:12:59;96001.28;;;19.62;79.08
44751;BME280;30477;48.224;11.470;2023-07-13T02:15:24;96001.09;;;19.64;78.88
44751;BME280;30477;48.224;11.470;2023-07-13T02:17:50;96002.69;;;19.65;78.65
44751;BME280;30477;48.224;11.470;2023-07-13T02:20:15;96007.31;;;19.63;78.94
44751;BME280;30477;48.224;11.470;2023-07-13T02:22:40;95995.59;;;19.59;78.43
44751;BME280;30477;48.224;11.470;2023-07-13T02:25:06;95995.66;;;19.65;78.85
44751;BME280;30477;48.224;11.470;2023-07-13T02:27:32;96003.31;;;19.67;78.96
44751;BME280;30477;48.224;11.470;2023-07-13T02:29:57;96005.13;;;19.66;78.91
44751;BME280;30477;48.224;11.470;2023-07-13T02:32:22;96012.19;;;19.66;78.60
44751;BME280;30477;48.224;11.470;2023-07-13T02:34:50;96024.72;;;19.64;78.50
44751;BME280;30477;48.224;11.470;2023-07-13T02:37:15;96036.81;;;19.65;78.76
44751;BME280;30477;48.224;11.470;2023-07-13T02:39:40;96034.81;;;19.67;78.69
44751;BME280;30477;48.224;11.470;2023-07-13T02:42:06;96047.75;;;19.68;78.65
44751;BME280;30477;48.224;11.470;2023-07-13T02:44:31;96051.03;;;19.71;78.69
44751;BME280;30477;48.224;11.470;2023-07-13T02:46:57;96049.13;;;19.58;78.57
44751;BME280;30477;48.224;11.470;2023-07-13T02:49:22;96046.03;;;19.34;78.87
44751;BME280;30477;48.224;11.470;2023-07-13T02:51:48;96054.88;;;19.33;79.02
44751;BME280;30477;48.224;11.470;2023-07-13T02:54:13;96047.00;;;19.33;79.17
44751;BME280;30477;48.224;11.470;2023-07-13T02:56:39;96050.66;;;19.32;79.15
44751;BME280;30477;48.224;11.470;2023-07-13T02:59:04;96060.28;;;19.25;79.03
44751;BME280;30477;48.224;11.470;2023-07-13T03:01:29;96057.78;;;19.10;78.92
44751;BME280;30477;48.224;11.470;2023-07-13T03:03:55;96057.00;;;19.10;79.35
44751;BME280;30477;48.224;11.470;2023-07-13T03:06:21;96051.97;;;19.15;79.42
44751;BME280;30477;48.224;11.470;2023-07-13T03:08:47;96049.91;;;19.10;79.82
44751;BME280;30477;48.224;11.470;2023-07-13T03:11:16;96053.53;;;19.02;79.50
44751;BME280;30477;48.224;11.470;2023-07-13T03:13:42;96061.66;;;19.14;80.15
44751;BME280;30477;48.224;11.470;2023-07-13T03:16:08;96065.94;;;19.22;79.79
44751;BME280;30477;48.224;11.470;2023-07-13T03:18:35;96060.09;;;19.26;79.78
44751;BME280;30477;48.224;11.470;2023-07-13T03:21:01;96058.47;;;19.25;79.15
44751;BME280;30477;48.224;11.470;2023-07-13T03:23:26;96058.44;;;19.19;79.07
44751;BME280;30477;48.224;11.470;2023-07-13T03:28:31;96056.66;;;19.19;78.80
44751;BME280;30477;48.224;11.470;2023-07-13T03:31:05;96058.44;;;19.19;78.65
44751;BME280;30477;48.224;11.470;2023-07-13T03:33:31;96064.63;;;19.04;78.42
44751;BME280;30477;48.224;11.470;2023-07-13T03:35:57;96068.41;;;18.95;78.90
44751;BME280;30477;48.224;11.470;2023-07-13T03:38:22;96076.13;;;19.03;78.48
44751;BME280;30477;48.224;11.470;2023-07-13T03:40:48;96070.47;;;19.06;78.47
44751;BME280;30477;48.224;11.470;2023-07-13T03:43:14;96066.88;;;19.08;78.08
44751;BME280;30477;48.224;11.470;2023-07-13T03:45:39;96067.66;;;19.08;78.07
44751;BME280;30477;48.224;11.470;2023-07-13T03:48:05;96071.94;;;19.09;78.08
44751;BME280;30477;48.224;11.470;2023-07-13T03:50:31;96073.03;;;18.93;77.96
44751;BME280;30477;48.224;11.470;2023-07-13T03:52:57;96072.84;;;18.95;77.95
44751;BME280;30477;48.224;11.470;2023-07-13T03:55:23;96070.41;;;18.93;77.73
44751;BME280;30477;48.224;11.470;2023-07-13T03:57:57;96074.03;;;18.92;77.85
44751;BME280;30477;48.224;11.470;2023-07-13T04:00:22;96079.03;;;18.87;77.94
44751;BME280;30477;48.224;11.470;2023-07-13T04:02:48;96072.41;;;18.91;77.75
44751;BME280;30477;48.224;11.470;2023-07-13T04:05:14;96076.06;;;18.90;77.62
44751;BME280;30477;48.224;11.470;2023-07-13T04:07:40;96080.31;;;18.70;77.58
44751;BME280;30477;48.224;11.470;2023-07-13T04:10:05;96083.91;;;18.69;77.82
44751;BME280;30477;48.224;11.470;2023-07-13T04:12:31;96086.78;;;18.74;77.82
44751;BME280;30477;48.224;11.470;2023-07-13T04:14:56;96091.66;;;18.77;77.82
44751;BME280;30477;48.224;11.470;2023-07-13T04:17:21;96099.34;;;18.78;77.28
44751;BME280;30477;48.224;11.470;2023-07-13T04:19:47;96099.09;;;18.73;77.06
44751;BME280;30477;48.224;11.470;2023-07-13T04:22:14;96091.22;;;18.73;77.60
44751;BME280;30477;48.224;11.470;2023-07-13T04:24:39;96095.28;;;18.76;77.29
44751;BME280;30477;48.224;11.470;2023-07-13T04:27:05;96099.72;;;18.75;77.37
44751;BME280;30477;48.224;11.470;2023-07-13T04:29:30;96109.94;;;18.70;77.37
44751;BME280;30477;48.224;11.470;2023-07-13T04:31:55;96103.66;;;18.64;76.88
44751;BME280;30477;48.224;11.470;2023-07-13T04:34:21;96111.38;;;18.73;77.80
44751;BME280;30477;48.224;11.470;2023-07-13T04:36:46;96106.66;;;18.83;77.32
44751;BME280;30477;48.224;11.470;2023-07-13T04:39:11;96109.72;;;18.86;77.30
44751;BME280;30477;48.224;11.470;2023-07-13T04:41:36;96104.03;;;18.83;77.01
44751;BME280;30477;48.224;11.470;2023-07-13T04:44:02;96099.50;;;18.77;77.26
44751;BME280;30477;48.224;11.470;2023-07-13T04:46:28;96109.84;;;18.78;77.24
44751;BME280;30477;48.224;11.470;2023-07-13T04:48:53;96109.66;;;18.80;77.50
44751;BME280;30477;48.224;11.470;2023-07-13T04:51:19;96119.63;;;18.91;77.39
44751;BME280;30477;48.224;11.470;2023-07-13T04:53:44;96119.25;;;18.94;77.23
44751;BME280;30477;48.224;11.470;2023-07-13T04:56:10;96116.63;;;18.94;77.22
44751;BME280;30477;48.224;11.470;2023-07-13T04:58:35;96117.63;;;18.93;76.95
44751;BME280;30477;48.224;11.470;2023-07-13T05:01:01;96130.50;;;18.88;77.27
44751;BME280;30477;48.224;11.470;2023-07-13T05:03:28;96142.47;;;18.76;77.09
44751;BME280;30477;48.224;11.470;2023-07-13T05:05:54;96138.69;;;18.78;77.57
44751;BME280;30477;48.224;11.470;2023-07-13T05:08:19;96136.59;;;18.95;77.61
44751;BME280;30477;48.224;11.470;2023-07-13T05:10:44;96129.97;;;18.99;77.50
44751;BME280;30477;48.224;11.470;2023-07-13T05:13:10;96140.09;;;19.02;77.52
44751;BME280;30477;48.224;11.470;2023-07-13T05:15:35;96137.00;;;18.92;77.24
44751;BME280;30477;48.224;11.470;2023-07-13T05:18:00;96140.41;;;18.93;77.66
44751;BME280;30477;48.224;11.470;2023-07-13T05:20:26;96136.38;;;18.90;77.98
44751;BME280;30477;48.224;11.470;2023-07-13T05:22:51;96138.16;;;18.90;77.55
44751;BME280;30477;48.224;11.470;2023-07-13T05:25:16;96135.78;;;18.95;78.03
44751;BME280;30477;48.224;11.470;2023-07-13T05:27:42;96138.28;;;19.03;78.07
44751;BME280;30477;48.224;11.470;2023-07-13T05:30:07;96142.09;;;19.00;77.40
44751;BME280;30477;48.224;11.470;2023-07-13T05:32:36;96130.06;;;18.84;77.49
44751;BME280;30477;48.224;11.470;2023-07-13T05:35:01;96140.44;;;18.71;77.64
44751;BME280;30477;48.224;11.470;2023-07-13T05:37:26;96144.03;;;18.70;77.85
44751;BME280;30477;48.224;11.470;2023-07-13T05:39:52;96138.84;;;18.77;78.05
44751;BME280;30477;48.224;11.470;2023-07-13T05:42:17;96135.00;;;18.94;78.07
44751;BME280;30477;48.224;11.470;2023-07-13T05:44:42;96135.72;;;19.16;77.70
44751;BME280;30477;48.224;11.470;2023-07-13T05:47:09;96137.72;;;19.42;77.34
44751;BME280;30477;48.224;11.470;2023-07-13T05:49:34;96132.09;;;19.87;76.82
44751;BME280;30477;48.224;11.470;2023-07-13T05:51:59;96134.41;;;20.23;76.02
44751;BME280;30477;48.224;11.470;2023-07-13T05:54:25;96143.22;;;20.71;74.66
44751;BME280;30477;48.224;11.470;2023-07-13T05:56:50;96144.22;;;20.76;73.14
44751;BME280;30477;48.224;11.470;2023-07-13T05:59:17;96140.53;;;20.57;72.60
44751;BME280;30477;48.224;11.470;2023-07-13T06:01:43;96149.03;;;20.46;72.40
44751;BME280;30477;48.224;11.470;2023-07-13T06:04:08;96142.56;;;20.42;71.79
44751;BME280;30477;48.224;11.470;2023-07-13T06:06:33;96148.59;;;20.22;72.21
44751;BME280;30477;48.224;11.470;2023-07-13T06:08:59;96147.22;;;20.53;72.72
44751;BME280;30477;48.224;11.470;2023-07-13T06:11:26;96157.38;;;20.83;71.58
44751;BME280;30477;48.224;11.470;2023-07-13T06:13:53;96152.56;;;22.68;71.59
44751;BME280;30477;48.224;11.470;2023-07-13T06:16:19;96152.09;;;24.93;64.58
44751;BME280;30477;48.224;11.470;2023-07-13T06:18:44;96148.31;;;26.12;60.57
44751;BME280;30477;48.224;11.470;2023-07-13T06:21:18;96146.31;;;24.96;56.87
44751;BME280;30477;48.224;11.470;2023-07-13T06:23:46;96150.44;;;23.89;59.27
44751;BME280;30477;48.224;11.470;2023-07-13T06:26:15;96158.63;;;23.44;59.13
44751;BME280;30477;48.224;11.470;2023-07-13T06:28:41;96156.47;;;23.16;59.83
44751;BME280;30477;48.224;11.470;2023-07-13T06:31:08;96172.28;;;22.91;59.55
44751;BME280;30477;48.224;11.470;2023-07-13T06:33:34;96185.53;;;22.07;60.91
44751;BME280;30477;48.224;11.470;2023-07-13T06:35:59;96182.03;;;21.35;62.85
44751;BME280;30477;48.224;11.470;2023-07-13T06:38:24;96183.47;;;20.91;63.45
44751;BME280;30477;48.224;11.470;2023-07-13T06:40:50;96195.94;;;20.49;64.20
44751;BME280;30477;48.224;11.470;2023-07-13T06:43:15;96197.47;;;20.17;65.61
44751;BME280;30477;48.224;11.470;2023-07-13T06:45:46;96197.66;;;20.15;65.98
44751;BME280;30477;48.224;11.470;2023-07-13T06:48:14;96202.38;;;19.78;66.38
44751;BME280;30477;48.224;11.470;2023-07-13T06:50:41;96200.13;;;19.75;66.07
44751;BME280;30477;48.224;11.470;2023-07-13T06:53:06;96192.25;;;19.75;66.29
44751;BME280;30477;48.224;11.470;2023-07-13T06:55:31;96209.41;;;19.78;66.06
44751;BME280;30477;48.224;11.470;2023-07-13T06:57:57;96210.50;;;19.90;65.64
44751;BME280;30477;48.224;11.470;2023-07-13T07:00:23;96220.34;;;19.81;65.46
44751;BME280;30477;48.224;11.470;2023-07-13T07:02:48;96208.66;;;19.84;65.14
44751;BME280;30477;48.224;11.470;2023-07-13T07:05:14;96214.94;;;19.90;65.66
44751;BME280;30477;48.224;11.470;2023-07-13T07:07:39;96217.41;;;20.53;64.51
44751;BME280;30477;48.224;11.470;2023-07-13T07:10:05;96218.53;;;20.23;64.33
44751;BME280;30477;48.224;11.470;2023-07-13T07:12:30;96209.19;;;20.14;64.74
44751;BME280;30477;48.224;11.470;2023-07-13T07:14:55;96220.53;;;20.21;64.66
44751;BME280;30477;48.224;11.470;2023-07-13T07:17:21;96217.28;;;20.13;64.76
44751;BME280;30477;48.224;11.470;2023-07-13T07:19:46;96215.50;;;20.26;64.93
44751;BME280;30477;48.224;11.470;2023-07-13T07:22:11;96205.97;;;20.12;64.59
44751;BME280;30477;48.224;11.470;2023-07-13T07:24:37;96216.03;;;20.02;65.31
44751;BME280;30477;48.224;11.470;2023-07-13T07:27:02;96222.22;;;19.87;65.02
44751;BME280;30477;48.224;11.470;2023-07-13T07:29:28;96221.75;;;19.77;66.22
44751;BME280;30477;48.224;11.470;2023-07-13T07:31:53;96218.38;;;19.90;66.30
44751;BME280;30477;48.224;11.470;2023-07-13T07:34:19;96226.28;;;19.97;65.73
44751;BME280;30477;48.224;11.470;2023-07-13T07:36:44;96227.78;;;20.13;65.17
44751;BME280;30477;48.224;11.470;2023-07-13T07:39:10;96228.66;;;20.26;65.12
44751;BME280;30477;48.224;11.470;2023-07-13T07:41:35;96232.69;;;20.22;64.40
44751;BME280;30477;48.224;11.470;2023-07-13T07:44:00;96239.34;;;20.18;64.65
44751;BME280;30477;48.224;11.470;2023-07-13T07:46:26;96235.16;;;20.31;64.54
44751;BME280;30477;48.224;11.470;2023-07-13T07:48:51;96241.34;;;20.64;63.82
44751;BME280;30477;48.224;11.470;2023-07-13T07:51:16;96236.09;;;20.71;63.94
44751;BME280;30477;48.224;11.470;2023-07-13T07:53:41;96240.88;;;20.54;62.85
44751;BME280;30477;48.224;11.470;2023-07-13T07:56:07;96251.13;;;20.36;62.99
44751;BME280;30477;48.224;11.470;2023-07-13T07:58:32;96254.84;;;20.06;62.73
44751;BME280;30477;48.224;11.470;2023-07-13T08:01:06;96253.13;;;19.85;63.20
44751;BME280;30477;48.224;11.470;2023-07-13T08:03:32;96254.41;;;19.68;63.53
44751;BME280;30477;48.224;11.470;2023-07-13T08:05:57;96262.88;;;19.42;63.56
44751;BME280;30477;48.224;11.470;2023-07-13T08:08:23;96266.84;;;19.31;63.61
44751;BME280;30477;48.224;11.470;2023-07-13T08:10:48;96272.16;;;19.38;64.30
44751;BME280;30477;48.224;11.470;2023-07-13T08:13:14;96274.94;;;19.58;64.10
44751;BME280;30477;48.224;11.470;2023-07-13T08:15:39;96279.06;;;19.45;64.25
44751;BME280;30477;48.224;11.470;2023-07-13T08:18:05;96276.22;;;19.40;63.64
44751;BME280;30477;48.224;11.470;2023-07-13T08:20:31;96273.81;;;19.45;63.09
44751;BME280;30477;48.224;11.470;2023-07-13T08:22:56;96273.25;;;19.22;62.72
44751;BME280;30477;48.224;11.470;2023-07-13T08:25:22;96280.22;;;19.15;62.98
44751;BME280;30477;48.224;11.470;2023-07-13T08:27:48;96285.59;;;19.06;63.04
44751;BME280;30477;48.224;11.470;2023-07-13T08:30:13;96286.50;;;19.14;63.71
44751;BME280;30477;48.224;11.470;2023-07-13T08:32:38;96278.00;;;19.40;63.64
44751;BME280;30477;48.224;11.470;2023-07-13T08:35:05;96286.41;;;19.57;63.26
44751;BME280;30477;48.224;11.470;2023-07-13T08:37:30;96288.81;;;20.08;62.54
44751;BME280;30477;48.224;11.470;2023-07-13T08:39:56;96283.47;;;19.95;61.20
44751;BME280;30477;48.224;11.470;2023-07-13T08:42:38;96291.75;;;20.26;61.35
44751;BME280;30477;48.224;11.470;2023-07-13T08:45:12;96291.97;;;20.32;59.79
44751;BME280;30477;48.224;11.470;2023-07-13T08:47:52;96292.66;;;20.05;60.34
44751;BME280;30477;48.224;11.470;2023-07-13T08:50:23;96292.66;;;20.05;60.45
44751;BME280;30477;48.224;11.470;2023-07-13T08:52:49;96290.94;;;19.91;59.00
44751;BME280;30477;48.224;11.470;2023-07-13T08:57:42;96298.72;;;19.78;60.20
44751;BME280;30477;48.224;11.470;2023-07-13T09:00:11;96295.41;;;19.69;59.73
44751;BME280;30477;48.224;11.470;2023-07-13T09:02:49;96293.25;;;19.73;59.77
44751;BME280;30477;48.224;11.470;2023-07-13T09:05:36;96295.09;;;19.79;59.90
44751;BME280;30477;48.224;11.470;2023-07-13T09:08:16;96293.94;;;19.60;59.44
44751;BME280;30477;48.224;11.470;2023-07-13T09:16:46;96298.63;;;20.34;59.41
44751;BME280;30477;48.224;11.470;2023-07-13T09:19:20;96288.88;;;20.70;58.39
44751;BME280;30477;48.224;11.470;2023-07-13T09:21:47;96291.75;;;20.75;56.92
44751;BME280;30477;48.224;11.470;2023-07-13T09:26:51;96296.78;;;20.70;56.31
44751;BME280;30477;48.224;11.470;2023-07-13T09:29:26;96294.03;;;21.11;55.63
44751;BME280;30477;48.224;11.470;2023-07-13T09:31:54;96293.63;;;21.01;54.64
44751;BME280;30477;48.224;11.470;2023-07-13T09:34:23;96289.56;;;20.92;54.59
44751;BME280;30477;48.224;11.470;2023-07-13T09:36:49;96296.59;;;20.78;54.19
44751;BME280;30477;48.224;11.470;2023-07-13T09:42:03;96291.22;;;21.19;54.00
44751;BME280;30477;48.224;11.470;2023-07-13T09:44:54;96297.31;;;21.66;53.22
44751;BME280;30477;48.224;11.470;2023-07-13T09:47:23;96291.66;;;21.69;52.46
44751;BME280;30477;48.224;11.470;2023-07-13T09:50:02;96291.59;;;21.96;52.00
44751;BME280;30477;48.224;11.470;2023-07-13T09:55:35;96295.91;;;21.71;50.89
44751;BME280;30477;48.224;11.470;2023-07-13T10:00:31;96298.03;;;22.20;50.51
44751;BME280;30477;48.224;11.470;2023-07-13T10:03:21;96290.34;;;22.12;49.56
44751;BME280;30477;48.224;11.470;2023-07-13T10:05:48;96291.56;;;22.16;49.72
44751;BME280;30477;48.224;11.470;2023-07-13T10:08:18;96291.81;;;22.66;49.02
44751;BME280;30477;48.224;11.470;2023-07-13T10:10:44;96298.84;;;23.18;47.66
44751;BME280;30477;48.224;11.470;2023-07-13T10:13:43;96290.66;;;23.51;46.77
44751;BME280;30477;48.224;11.470;2023-07-13T10:16:10;96286.50;;;23.62;45.08
44751;BME280;30477;48.224;11.470;2023-07-13T10:18:43;96292.97;;;23.41;45.07
44751;BME280;30477;48.224;11.470;2023-07-13T10:21:18;96306.03;;;23.36;45.09
44751;BME280;30477;48.224;11.470;2023-07-13T10:23:51;96301.97;;;23.08;45.92
44751;BME280;30477;48.224;11.470;2023-07-13T10:26:29;96299.13;;;22.64;46.21
44751;BME280;30477;48.224;11.470;2023-07-13T10:29:00;96310.19;;;22.35;46.64
44751;BME280;30477;48.224;11.470;2023-07-13T10:31:26;96309.00;;;22.31;47.16
44751;BME280;30477;48.224;11.470;2023-07-13T10:33:52;96311.00;;;22.15;47.66
44751;BME280;30477;48.224;11.470;2023-07-13T10:36:31;96304.47;;;22.44;47.93
44751;BME280;30477;48.224;11.470;2023-07-13T10:39:02;96301.22;;;22.49;47.47
44751;BME280;30477;48.224;11.470;2023-07-13T10:41:30;96299.84;;;22.85;47.88
44751;BME280;30477;48.224;11.470;2023-07-13T10:43:57;96301.56;;;23.04;45.93
44751;BME280;30477;48.224;11.470;2023-07-13T10:46:26;96307.75;;;22.85;45.88
44751;BME280;30477;48.224;11.470;2023-07-13T10:48:56;96303.78;;;23.07;46.28
44751;BME280;30477;48.224;11.470;2023-07-13T10:51:22;96308.91;;;23.02;45.78
44751;BME280;30477;48.224;11.470;2023-07-13T10:56:39;96316.88;;;23.53;44.84
44751;BME280;30477;48.224;11.470;2023-07-13T10:59:17;96316.69;;;23.47;44.70
44751;BME280;30477;48.224;11.470;2023-07-13T11:01:52;96307.91;;;23.54;44.64
44751;BME280;30477;48.224;11.470;2023-07-13T11:04:20;96310.66;;;23.40;45.24
44751;BME280;30477;48.224;11.470;2023-07-13T11:06:47;96307.59;;;23.43;45.16
44751;BME280;30477;48.224;11.470;2023-07-13T11:09:38;96317.00;;;23.33;45.35
44751;BME280;30477;48.224;11.470;2023-07-13T11:15:12;96307.13;;;23.53;45.77
44751;BME280;30477;48.224;11.470;2023-07-13T11:17:50;96307.75;;;23.48;44.58
44751;BME280;30477;48.224;11.470;2023-07-13T11:22:44;96306.72;;;23.49;45.28
44751;BME280;30477;48.224;11.470;2023-07-13T11:25:30;96303.66;;;23.53;45.60
44751;BME280;30477;48.224;11.470;2023-07-13T11:33:24;96298.78;;;23.24;44.23
44751;BME280;30477;48.224;11.470;2023-07-13T11:36:06;96293.56;;;23.18;45.36
44751;BME280;30477;48.224;11.470;2023-07-13T11:38:36;96281.34;;;23.23;44.84
44751;BME280;30477;48.224;11.470;2023-07-13T11:43:38;96296.00;;;23.19;44.92
44751;BME280;30477;48.224;11.470;2023-07-13T11:46:19;96278.53;;;23.18;44.93
44751;BME280;30477;48.224;11.470;2023-07-13T11:48:46;96281.13;;;23.25;44.57
44751;BME280;30477;48.224;11.470;2023-07-13T11:51:21;96283.59;;;23.20;44.88
44751;BME280;30477;48.224;11.470;2023-07-13T11:53:49;96272.34;;;23.31;44.42
44751;BME280;30477;48.224;11.470;2023-07-13T11:56:15;96280.53;;;23.23;43.95
44751;BME280;30477;48.224;11.470;2023-07-13T11:58:41;96274.06;;;23.19;43.89
44751;BME280;30477;48.224;11.470;2023-07-13T12:01:16;96277.06;;;23.22;43.59
44751;BME280;30477;48.224;11.470;2023-07-13T12:03:43;96281.44;;;23.10;42.36
44751;BME280;30477;48.224;11.470;2023-07-13T12:06:40;96279.00;;;23.08;41.82
44751;BME280;30477;48.224;11.470;2023-07-13T12:09:12;96285.47;;;23.13;41.58
44751;BME280;30477;48.224;11.470;2023-07-13T12:11:40;96281.72;;;23.27;41.54
44751;BME280;30477;48.224;11.470;2023-07-13T12:14:06;96271.91;;;23.34;41.73
44751;BME280;30477;48.224;11.470;2023-07-13T12:16:33;96274.41;;;23.29;40.76
44751;BME280;30477;48.224;11.470;2023-07-13T12:19:02;96276.97;;;23.10;38.41
44751;BME280;30477;48.224;11.470;2023-07-13T12:21:38;96259.75;;;23.01;38.43
44751;BME280;30477;48.224;11.470;2023-07-13T12:24:04;96264.41;;;22.99;38.33
44751;BME280;30477;48.224;11.470;2023-07-13T12:26:31;96264.03;;;22.96;38.78
44751;BME280;30477;48.224;11.470;2023-07-13T12:29:00;96269.34;;;22.89;39.48
44751;BME280;30477;48.224;11.470;2023-07-13T12:34:09;96258.88;;;23.07;39.73
44751;BME280;30477;48.224;11.470;2023-07-13T12:37:00;96254.47;;;23.26;39.54
44751;BME280;30477;48.224;11.470;2023-07-13T12:41:50;96260.41;;;23.22;38.80
44751;BME280;30477;48.224;11.470;2023-07-13T12:47:06;96242.09;;;23.02;39.22
44751;BME280;30477;48.224;11.470;2023-07-13T12:49:41;96236.50;;;23.17;39.37
44751;BME280;30477;48.224;11.470;2023-07-13T12:52:14;96230.78;;;23.45;39.08
44751;BME280;30477;48.224;11.470;2023-07-13T12:54:40;96229.66;;;23.34;38.81
44751;BME280;30477;48.224;11.470;2023-07-13T12:57:13;96232.66;;;23.38;38.92
44751;BME280;30477;48.224;11.470;2023-07-13T12:59:41;96225.06;;;23.48;38.49
44751;BME280;30477;48.224;11.470;2023-07-13T13:02:29;96228.03;;;23.33;38.56
44751;BME280;30477;48.224;11.470;2023-07-13T13:04:56;96217.72;;;23.50;38.60
44751;BME280;30477;48.224;11.470;2023-07-13T13:07:23;96227.44;;;23.56;38.63
44751;BME280;30477;48.224;11.470;2023-07-13T13:09:48;96210.72;;;23.81;39.52
44751;BME280;30477;48.224;11.470;2023-07-13T13:12:13;96229.84;;;23.58;38.29
44751;BME280;30477;48.224;11.470;2023-07-13T13:14:40;96229.97;;;23.44;38.55
44751;BME280;30477;48.224;11.470;2023-07-13T13:17:18;96213.78;;;23.34;38.37
44751;BME280;30477;48.224;11.470;2023-07-13T13:19:45;96219.41;;;23.44;39.20
44751;BME280;30477;48.224;11.470;2023-07-13T13:22:11;96225.88;;;23.48;39.13
44751;BME280;30477;48.224;11.470;2023-07-13T13:24:36;96224.81;;;23.31;38.54
44751;BME280;30477;48.224;11.470;2023-07-13T13:27:02;96224.88;;;23.43;38.23
44751;BME280;30477;48.224;11.470;2023-07-13T13:29:27;96227.78;;;23.60;38.54
44751;BME280;30477;48.224;11.470;2023-07-13T13:31:54;96222.75;;;23.77;38.47
44751;BME280;30477;48.224;11.470;2023-07-13T13:34:21;96226.50;;;23.87;38.17
44751;BME280;30477;48.224;11.470;2023-07-13T13:36:49;96219.63;;;23.86;38.02
44751;BME280;30477;48.224;11.470;2023-07-13T13:39:23;96225.78;;;23.80;37.74
44751;BME280;30477;48.224;11.470;2023-07-13T13:41:52;96232.13;;;23.79;37.69